Алыкель

СКИДКИ НА СМАРТФОНЫ!

Карта отелей и гостиниц, располагающихся рядом с аэропортом Алыкель :

Алыкель
Норильск
Красноярский край 69° 18' 39.6612" N, 87° 19' 55.0812" E
Код аэродрома ИКАО
UOOO
Код аэродрома RU
УООО
Координаты
N69.31102° E087.33197°
Превышение над уровнем моря
181
Основная полоса
01/19
Курс магнитный
014/194
Длина основной ВПП
3435
Ширина основной ВПП
45
Покрытие основной ВПП
Твёрдое
Освещение ВПП
Постоянное
Тип: 
Аэродром
Принадлежность: 
ГА
Статус: 
Действующий
Сайт: 
http://airport-norilsk.ru/
E-mail аэродрома: 
airport@airport-norilsk.ru
Страна: 
Россия
Регион: 
Красноярский край
Город: 
Норильск
Дополнительная информация: 
Эксплуатант: ООО «Аэропорт Норильск». Совместного базирования. Приравнен к условиям "Международного"(пересечение воздушных магистралей: транссибирской и трансатлантической). Грузонапряженность ВПП до 280 тонн. PCN 47/R/A/X/T. Военный индекс: XOOO / ЬООО. Расположен на Севере Красноярского края, на юге Таймырского полуострова в 52 км от промышленного и индустриального центра г. Норильск с его градообразующим стратегически важным предприятием ПАО «ГМК «Норильский Никель».
Схемы аэропортов: 
Погода: 

Авиационная погода в аэропорту Алыкель

Регион: 
Погода METAR: 
UOOO 091600Z 25002MPS CAVOK 12/09 Q1011 R19/29//54 NOSIG RMK QFE742/0990
Время наблюдения
2022-08-09T16:00:00Z
Температура C
12.0
Точка росы
9.0
Направление ветра
250
Скорость ветра (узлы)
4
Метео видимость
6.21
Облачность
CAVOK
Нижняя граница облачности (футы)
Явления погоды
Условия полета
VFR
Аэропорт подробнее: 

Скидки на навигаторы!

Найти трансфер

С помощью этой формы Вы можете найти трансфер из аэропорта Алыкель в город, аэропорт или вокзал:

Погода в аэропортах:

Авиационная погода в Елизово

Регион: 
Погода METAR: 
UHPP 091600Z 15006MPS 8000 -SHRA SCT008 OVC031CB 12/12 Q1014 R16R/CLRD70 NOSIG RMK QFE757/1010
Время наблюдения
2022-08-09T16:00:00Z
Температура C
12.0
Точка росы
12.0
Направление ветра
150
Скорость ветра (узлы)
12
Метео видимость
4.97
Облачность
SCT
OVC
Нижняя граница облачности (футы)
800
3100
Явления погоды
-SHRA
Условия полета
MVFR
Аэропорт подробнее: 
SCT – разбросанная отдельная облачность; OVC – сплошная облачность;
-SHRA - слабый ливневой дождь;

Авиационная погода в Нижневартовске

Регион: 
Погода METAR: 
USNN 091530Z 34001MPS 1300 1100NE R21/1200N HZ FEW020CB 22/20 Q1015 R21/0///65 NOSIG RMK QFE756
Время наблюдения
2022-08-09T15:30:00Z
Температура C
22.0
Точка росы
20.0
Направление ветра
340
Скорость ветра (узлы)
2
Метео видимость
0.81
Облачность
FEW
Нижняя граница облачности (футы)
2000
Явления погоды
HZ
Условия полета
LIFR
Аэропорт подробнее: 
FEW – незначительная облачность;
HZ – мгла (видимость менее 10 км);

Авиационная погода в Вадсё

Регион: 
Погода METAR: 
ENVD 091520Z 28005KT 250V300 9999 VCSH SCT049 BKN110 14/10 Q1016
Время наблюдения
2022-08-09T15:20:00Z
Температура C
14.0
Точка росы
10.0
Направление ветра
280
Скорость ветра (узлы)
5
Метео видимость
6.21
Облачность
SCT
BKN
Нижняя граница облачности (футы)
4900
11000
Явления погоды
VCSH
Условия полета
VFR
SCT – разбросанная отдельная облачность; BKN – значительная (рассеянная, разорванная) облачность;

Авиационная погода в Берлевоге

Регион: 
Погода METAR: 
ENBV 091520Z AUTO 27011KT 9999 -RA SCT034 BKN044 OVC054 13/10 Q1016
Время наблюдения
2022-08-09T15:20:00Z
Температура C
13.0
Точка росы
10.0
Направление ветра
270
Скорость ветра (узлы)
11
Метео видимость
6.21
Облачность
SCT
BKN
OVC
Нижняя граница облачности (футы)
3400
4400
5400
Явления погоды
-RA
Условия полета
VFR
SCT – разбросанная отдельная облачность; BKN – значительная (рассеянная, разорванная) облачность; OVC – сплошная облачность;
-RA - слабый дождь;